createdAt,value
2022-11-24T00:03:45.877Z,97159.56
2022-11-24T00:08:39.402Z,97165.19
2022-11-24T00:13:31.095Z,97163.81
2022-11-24T00:18:22.769Z,97184.19
2022-11-24T00:23:14.550Z,97182.25
2022-11-24T00:28:06.167Z,97195.91
2022-11-24T00:32:57.801Z,97211.44
2022-11-24T00:37:49.470Z,97200.59
2022-11-24T00:42:41.196Z,97208.66
2022-11-24T00:47:33.029Z,97225.03
2022-11-24T00:52:24.646Z,97233.69
2022-11-24T00:57:16.426Z,97232.31
2022-11-24T01:02:08.109Z,97227.19
2022-11-24T01:07:00.266Z,97233.63
2022-11-24T01:12:04.349Z,97249.25
2022-11-24T01:16:56.730Z,97266.56
2022-11-24T01:21:48.717Z,97267.94
2022-11-24T01:26:40.439Z,97263.94
2022-11-24T01:31:32.947Z,97268.78
2022-11-24T01:36:24.940Z,97266.56
2022-11-24T01:41:18.201Z,97290.41
2022-11-24T01:46:31.496Z,97297.94
2022-11-24T01:51:26.804Z,97304.38
2022-11-24T01:56:19.468Z,97316.75
2022-11-24T02:01:11.741Z,97306.31
2022-11-24T02:06:20.230Z,97302.34
2022-11-24T02:11:11.916Z,97319.88
2022-11-24T02:16:09.020Z,97326.63
2022-11-24T02:21:01.484Z,97354.03
2022-11-24T02:26:26.585Z,97374.81
2022-11-24T02:31:18.588Z,97383.13
2022-11-24T02:36:10.321Z,97392.28
2022-11-24T02:41:09.008Z,97385.53
2022-11-24T02:46:00.779Z,97387.88
2022-11-24T02:50:52.410Z,97387.03
2022-11-24T02:55:44.137Z,97407.28
2022-11-24T03:00:35.796Z,97424.00
2022-11-24T03:05:27.440Z,97432.91
2022-11-24T03:10:19.090Z,97434.28
2022-11-24T03:15:11.379Z,97441.53
2022-11-24T03:20:05.121Z,97450.16
2022-11-24T03:24:56.952Z,97457.44
2022-11-24T03:29:48.581Z,97473.03
2022-11-24T03:34:40.251Z,97479.22
2022-11-24T03:39:31.876Z,97488.44
2022-11-24T03:44:23.685Z,97486.63
2022-11-24T03:49:15.309Z,97512.00
2022-11-24T03:54:07.254Z,97509.88
2022-11-24T03:58:58.807Z,97500.19
2022-11-24T04:03:50.468Z,97510.47
2022-11-24T04:08:42.116Z,97532.00
2022-11-24T04:13:33.752Z,97525.53
2022-11-24T04:18:25.532Z,97530.09
2022-11-24T04:23:17.643Z,97544.97
2022-11-24T04:28:10.140Z,97541.44
2022-11-24T04:33:01.903Z,97527.59
2022-11-24T04:37:53.939Z,97530.84
2022-11-24T04:42:53.889Z,97535.66
2022-11-24T04:47:45.505Z,97535.31
2022-11-24T04:52:37.336Z,97546.25
2022-11-24T04:57:29.687Z,97546.72
2022-11-24T05:02:23.051Z,97543.72
2022-11-24T05:07:18.861Z,97549.09
2022-11-24T05:12:10.933Z,97562.41
2022-11-24T05:17:02.566Z,97558.56
2022-11-24T05:21:54.444Z,97565.25
2022-11-24T05:26:46.247Z,97561.63
2022-11-24T05:31:38.053Z,97568.56
2022-11-24T05:36:48.531Z,97552.78
2022-11-24T05:41:41.972Z,97563.78
2022-11-24T05:46:33.863Z,97568.28
2022-11-24T05:51:25.557Z,97575.66
2022-11-24T05:56:17.321Z,97577.63
2022-11-24T06:01:09.044Z,97582.69
2022-11-24T06:06:00.941Z,97580.38
2022-11-24T06:10:52.585Z,97578.72
2022-11-24T06:15:44.214Z,97605.28
2022-11-24T06:20:36.676Z,97609.47
2022-11-24T06:25:29.394Z,97603.28
2022-11-24T06:30:21.321Z,97602.13
2022-11-24T06:35:13.602Z,97611.25
2022-11-24T06:40:09.092Z,97610.88
2022-11-24T06:45:00.836Z,97606.22
2022-11-24T06:49:52.639Z,97603.19
2022-11-24T06:54:44.436Z,97600.50
2022-11-24T06:59:36.125Z,97599.94
2022-11-24T07:04:27.968Z,97596.16
2022-11-24T07:09:19.616Z,97597.00
2022-11-24T07:14:11.347Z,97608.22
2022-11-24T07:19:03.234Z,97608.22
2022-11-24T07:23:57.263Z,97597.47
2022-11-24T07:28:49.630Z,97587.53
2022-11-24T07:33:41.454Z,97607.75
2022-11-24T07:38:34.060Z,97598.16
2022-11-24T07:43:25.731Z,97597.91
2022-11-24T07:48:17.420Z,97579.00
2022-11-24T07:53:09.113Z,97589.28
2022-11-24T07:58:02.017Z,97559.00
2022-11-24T08:02:54.202Z,97571.22
2022-11-24T08:07:45.960Z,97558.16
2022-11-24T08:12:37.804Z,97572.03
2022-11-24T08:17:29.591Z,97567.56
2022-11-24T08:22:21.735Z,97556.09
2022-11-24T08:27:14.589Z,97572.34
2022-11-24T08:32:06.835Z,97561.47
2022-11-24T08:36:58.825Z,97555.91
2022-11-24T08:41:50.639Z,97544.19
2022-11-24T08:46:42.285Z,97512.00
2022-11-24T08:51:34.107Z,97532.56
2022-11-24T08:56:27.491Z,97532.78
2022-11-24T09:01:19.342Z,97534.50
2022-11-24T09:06:11.396Z,97543.25
2022-11-24T09:11:05.729Z,97557.34
2022-11-24T09:16:02.207Z,97549.63
2022-11-24T09:20:57.467Z,97547.81
2022-11-24T09:25:49.264Z,97548.00
2022-11-24T09:30:41.030Z,97533.53
2022-11-24T09:35:32.668Z,97531.50
2022-11-24T09:40:24.477Z,97546.09
2022-11-24T09:45:49.056Z,97520.88
2022-11-24T09:50:38.365Z,97510.00
2022-11-24T09:55:40.701Z,97512.00
2022-11-24T10:00:33.865Z,97512.97
2022-11-24T10:05:29.515Z,97509.63
2022-11-24T10:10:30.061Z,97506.66
2022-11-24T10:15:38.228Z,97483.78
2022-11-24T10:20:55.013Z,97484.09
2022-11-24T10:26:01.605Z,97464.16
2022-11-24T10:31:00.454Z,97455.38
2022-11-24T10:35:54.856Z,97440.16
2022-11-24T10:40:58.183Z,97437.34
2022-11-24T10:45:50.366Z,97411.72
2022-11-24T10:50:43.116Z,97376.75
2022-11-24T10:55:56.774Z,97366.56
2022-11-24T11:00:48.449Z,97377.16
2022-11-24T11:05:43.802Z,97358.06
2022-11-24T11:10:35.549Z,97393.47
2022-11-24T11:15:30.851Z,97335.53
2022-11-24T11:20:28.307Z,97329.63
2022-11-24T11:25:20.138Z,97317.78
2022-11-24T11:35:35.152Z,97287.63
2022-11-24T11:40:29.337Z,97276.03
2022-11-24T11:45:32.194Z,97269.56
2022-11-24T11:51:06.477Z,97264.44
2022-11-24T11:55:56.066Z,97257.69
2022-11-24T12:01:08.029Z,97251.50
2022-11-24T12:06:12.202Z,97238.00
2022-11-24T12:11:24.453Z,97212.34
2022-11-24T12:16:30.898Z,97215.59
2022-11-24T12:21:35.211Z,97208.81
2022-11-24T12:26:45.635Z,97204.78
2022-11-24T12:31:50.308Z,97200.75
2022-11-24T12:36:57.454Z,97192.34
2022-11-24T12:42:10.161Z,97182.88
2022-11-24T12:47:14.045Z,97151.75
2022-11-24T12:52:20.055Z,97154.47
2022-11-24T12:57:34.697Z,97158.50
2022-11-24T13:02:29.338Z,97140.13
2022-11-24T13:07:49.299Z,97127.41
2022-11-24T13:13:14.689Z,97159.34
2022-11-24T13:18:47.221Z,97154.19
2022-11-24T13:23:39.483Z,97245.91
2022-11-24T13:29:06.164Z,97263.09
2022-11-24T13:34:50.034Z,97240.69
2022-11-24T13:40:14.185Z,97202.19
2022-11-24T13:45:45.332Z,97208.84
2022-11-24T13:50:55.022Z,97196.94
2022-11-24T13:56:12.775Z,97191.72
2022-11-24T14:01:11.696Z,97185.16
2022-11-24T14:06:04.393Z,97190.47
2022-11-24T14:10:58.395Z,97180.69
2022-11-24T14:16:05.141Z,97138.06
2022-11-24T14:20:58.774Z,97156.41
2022-11-24T14:25:51.917Z,97146.97
2022-11-24T14:30:43.622Z,97146.44
2022-11-24T14:35:36.184Z,97101.50
2022-11-24T14:40:55.105Z,97104.03
2022-11-24T14:46:09.378Z,97133.50
2022-11-24T14:51:13.354Z,97143.44
2022-11-24T14:56:23.894Z,97143.69
2022-11-24T15:01:28.495Z,97149.88
2022-11-24T15:06:21.481Z,97158.22
2022-11-24T15:11:14.084Z,97151.78
2022-11-24T15:16:19.268Z,97156.41
2022-11-24T15:21:17.221Z,97142.91
2022-11-24T15:26:13.757Z,97141.31
2022-11-24T15:31:09.751Z,97163.16
2022-11-24T15:36:01.486Z,97165.00
2022-11-24T15:40:55.703Z,97169.88
2022-11-24T15:45:47.572Z,97186.31
2022-11-24T15:50:39.620Z,97179.78
2022-11-24T15:55:32.558Z,97190.53
2022-11-24T16:00:24.494Z,97208.63
2022-11-24T16:05:18.032Z,97211.06
2022-11-24T16:10:25.149Z,97215.94
2022-11-24T16:15:17.097Z,97211.84
2022-11-24T16:20:09.415Z,97221.88
2022-11-24T16:25:01.171Z,97234.84
2022-11-24T16:29:52.917Z,97271.81
2022-11-24T16:34:44.536Z,97278.88
2022-11-24T16:39:36.324Z,97275.38
2022-11-24T16:44:28.064Z,97279.94
2022-11-24T16:49:19.921Z,97274.50
2022-11-24T16:54:11.868Z,97261.50
2022-11-24T16:59:03.735Z,97266.81
2022-11-24T17:03:55.425Z,97262.19
2022-11-24T17:08:50.029Z,97259.44
2022-11-24T17:13:42.810Z,97284.22
2022-11-24T17:18:35.034Z,97287.69
2022-11-24T17:23:27.223Z,97285.94
2022-11-24T17:28:19.520Z,97285.88
2022-11-24T17:33:11.699Z,97298.56
2022-11-24T17:38:03.715Z,97296.38
2022-11-24T17:43:02.278Z,97299.56
2022-11-24T17:47:54.201Z,97310.63
2022-11-24T17:52:45.802Z,97310.09
2022-11-24T17:57:37.581Z,97312.78
2022-11-24T18:02:29.357Z,97322.41
2022-11-24T18:07:21.165Z,97330.25
2022-11-24T18:12:13.301Z,97329.63
2022-11-24T18:17:05.017Z,97343.03
2022-11-24T18:21:56.653Z,97343.84
2022-11-24T18:26:48.569Z,97363.44
2022-11-24T18:31:40.347Z,97361.75
2022-11-24T18:36:32.855Z,97363.59
2022-11-24T18:41:24.594Z,97351.13
2022-11-24T18:46:18.239Z,97364.00
2022-11-24T18:51:14.737Z,97369.06
2022-11-24T18:56:08.242Z,97367.19
2022-11-24T19:01:13.193Z,97368.75
2022-11-24T19:06:07.011Z,97372.25
2022-11-24T19:10:59.416Z,97384.31
2022-11-24T19:15:52.089Z,97400.41
2022-11-24T19:20:43.876Z,97402.06
2022-11-24T19:25:35.630Z,97386.41
2022-11-24T19:30:29.424Z,97370.00
2022-11-24T19:35:21.383Z,97371.06
2022-11-24T19:40:13.778Z,97382.88
2022-11-24T19:45:06.185Z,97377.81
2022-11-24T19:49:57.917Z,97385.06
2022-11-24T19:54:49.642Z,97383.78
2022-11-24T19:59:41.994Z,97375.94
2022-11-24T20:04:38.316Z,97359.28
2022-11-24T20:09:30.239Z,97360.94
2022-11-24T20:14:22.145Z,97342.00
2022-11-24T20:19:15.898Z,97346.09
2022-11-24T20:24:13.558Z,97345.78
2022-11-24T20:29:06.421Z,97339.25
2022-11-24T20:34:00.165Z,97346.19
2022-11-24T20:38:53.315Z,97331.91
2022-11-24T20:43:46.306Z,97328.44
2022-11-24T20:48:38.508Z,97321.91
2022-11-24T20:53:30.368Z,97314.56
2022-11-24T20:58:22.026Z,97323.44
2022-11-24T21:03:13.631Z,97318.31
2022-11-24T21:08:05.767Z,97316.13
2022-11-24T21:12:57.485Z,97311.44
2022-11-24T21:17:49.594Z,97314.75
2022-11-24T21:22:41.275Z,97315.81
2022-11-24T21:27:32.957Z,97313.69
2022-11-24T21:32:26.601Z,97313.69
2022-11-24T21:37:18.352Z,97312.63
2022-11-24T21:42:09.991Z,97312.63
2022-11-24T21:47:01.780Z,97341.22
2022-11-24T21:51:56.039Z,97323.78
2022-11-24T21:56:48.168Z,97325.50
2022-11-24T22:01:40.103Z,97310.78
2022-11-24T22:06:33.378Z,97305.97
2022-11-24T22:11:27.064Z,97310.84
2022-11-24T22:16:21.898Z,97318.63
2022-11-24T22:21:16.520Z,97301.88
2022-11-24T22:26:11.280Z,97297.00
2022-11-24T22:31:08.373Z,97318.22
2022-11-24T22:36:01.187Z,97307.44
2022-11-24T22:40:53.163Z,97311.28
2022-11-24T22:45:45.034Z,97308.34
2022-11-24T22:50:36.757Z,97316.72
2022-11-24T22:55:28.432Z,97317.63
2022-11-24T23:00:20.171Z,97323.06
2022-11-24T23:05:14.705Z,97342.28
2022-11-24T23:10:10.257Z,97320.81
2022-11-24T23:15:02.063Z,97342.97
2022-11-24T23:19:53.777Z,97347.63
2022-11-24T23:24:45.508Z,97345.22
2022-11-24T23:29:37.234Z,97369.53
2022-11-24T23:34:28.882Z,97363.09
2022-11-24T23:39:20.506Z,97383.88
2022-11-24T23:44:12.155Z,97394.97
2022-11-24T23:49:03.867Z,97411.72
2022-11-24T23:53:56.573Z,97426.78
2022-11-24T23:58:49.064Z,97459.47
